Woodstock, VA

12:46 AM EDT on September 02, 2014 (GMT -0400)
Woodstock West | Change Station
CLOSE
Current Station
Personal Weather Station
Location: Woodstock, VA
Elevation: 991 ft
Nearby Weather Stations

Elev 991 ft 38.90 °N, 78.54 °W | Updated 2 seconds ago

Partly Cloudy
Partly Cloudy
72.7 °F
Feels Like 72 °F
N
4.0
Wind Variable Wind from NW
Gusts 6.0 mph

Today
High -- | Low -- °F
--% Chance of Precip.
Yesterday
High -- | Low -- °F
Precip. -- in
6:43 AM 7:42 PM
Waxing Crescent, 47% visible
Pressure 30.03 in
Visibility 10.0 miles
Clouds Clear
Heat Index 72 °F
Dew Point 68 °F
Humidity 84%
Rainfall 0.00 in
Snow Depth Not available.
UV 0 out of 12
Pollen 7.30 out of 12
Air Quality Not available.
Flu Activity Not available.
METAR KLUA 020435Z AUTO 18005KT 10SM CLR 26/18 A3003 RMK AO2

More Conditions Fewer Conditions

Pressure 30.03 in
Visibility 10.0 miles
Clouds Clear
Heat Index 72 °F
Dew Point 68 °F
Humidity 84%
Rainfall 0.00 in
Snow Depth Not available.
UV 0 out of 12
Pollen 7.30 out of 12
Air Quality Not available.
Flu Activity Not available.
METAR KLUA 020435Z AUTO 18005KT 10SM CLR 26/18 A3003 RMK AO2

More Conditions Fewer Conditions

10-Day Weather Forecast

Almanac

Astronomy

Sep. 02, 2014 Rise Set
Actual Time 6:43 AM EDT 7:42 PM EDT
Civil Twilight 6:16 AM EDT 8:10 PM EDT
Nautical Twilight 5:44 AM EDT 8:42 PM EDT
Astronomical Twilight 5:10 AM EDT 9:15 PM EDT
Moon 2:22 PM EDT No Moon Set
Length of Visible Light 13h 53m
Length of Day
12h 58m
Tomorrow will be 2m 25s shorter.
Waxing Crescent, 47% of the Moon is Illuminated
Today
Waxing Crescent
Sep 2
First Quarter
Sep 8
Full
Sep 15
Last Quarter
Sep 24
New

Today's Extremes

State Highs State Lows

Community

WunderPhotos

Upload Photos

1,749,573 photos uploaded!

WunderBlogs® & News

Nearby

Snow Depth

Station Depth Elevation
No new snow has been reported.

Earthquake Activity

City Distance Mag. Time & Date
No recent earthquake activity has been reported nearby.
Minimum magnitude displayed is 2.5.

Coastal Water Temperatures

Place Temperature
No Stations Reporting

Nearby Weather Stations